Time;durP1;ratioP1;P1;durP2;ratioP2;P2;SDS_P1;SDS_P2;PMS_P1;PMS_P2;Temp;Humidity;BMP_temperature;BMP_pressure;BME280_temperature;BME280_humidity;BME280_pressure;Samples;Min_cycle;Max_cycle;Signal;HPM_P1;HPM_P2
2022/01/22 00:00:40;;;;;;;25.58;23.83;;;1.10;69.90;;;;;;5052822;28;20041;-73
2022/01/22 00:03:06;;;;;;;21.65;20.00;;;1.20;69.90;;;;;;5051067;28;20625;-73
2022/01/22 00:05:32;;;;;;;22.80;21.58;;;1.20;69.80;;;;;;5053094;28;20025;-73
2022/01/22 00:07:57;;;;;;;24.25;22.23;;;1.20;69.90;;;;;;5053354;28;20029;-72
2022/01/22 00:10:24;;;;;;;22.60;20.95;;;1.20;69.90;;;;;;5054150;28;20025;-73
2022/01/22 00:15:24;;;;;;;24.25;22.48;;;1.30;70.00;;;;;;5056722;28;20108;-71
2022/01/22 00:17:51;;;;;;;29.95;22.25;;;1.30;69.80;;;;;;5055439;28;20482;-73
2022/01/22 00:20:20;;;;;;;49.60;29.60;;;1.30;69.80;;;;;;5056689;28;20017;-73
2022/01/22 00:22:45;;;;;;;36.17;28.02;;;1.30;69.90;;;;;;5056531;28;20079;-73
2022/01/22 00:25:12;;;;;;;30.65;25.50;;;1.30;69.80;;;;;;5056525;28;20455;-74
2022/01/22 00:27:40;;;;;;;31.08;24.98;;;1.30;69.70;;;;;;5056565;28;20459;-73
2022/01/22 00:30:10;;;;;;;22.77;20.52;;;1.40;69.70;;;;;;5056344;28;20025;-72
2022/01/22 00:32:36;;;;;;;23.05;21.17;;;1.40;69.70;;;;;;5056104;28;20395;-71
2022/01/22 00:35:02;;;;;;;22.52;21.15;;;1.40;69.60;;;;;;5056147;28;20381;-73
2022/01/22 00:37:28;;;;;;;19.48;18.48;;;1.30;69.50;;;;;;5056128;28;20036;-75
2022/01/22 00:39:54;;;;;;;20.20;18.85;;;1.30;69.40;;;;;;5056235;28;20025;-74
2022/01/22 00:42:21;;;;;;;22.23;20.60;;;1.30;69.50;;;;;;5056075;28;20033;-73
2022/01/22 00:44:49;;;;;;;21.73;20.48;;;1.30;69.50;;;;;;5056137;28;20040;-72
2022/01/22 00:47:16;;;;;;;21.35;19.75;;;1.30;69.60;;;;;;5056067;28;20024;-74
2022/01/22 00:49:41;;;;;;;18.35;17.33;;;1.30;69.50;;;;;;5055491;28;20033;-74
2022/01/22 00:52:07;;;;;;;20.67;19.50;;;1.30;69.50;;;;;;5055819;28;20125;-72
2022/01/22 00:54:32;;;;;;;22.95;21.30;;;1.30;69.40;;;;;;5055967;28;20033;-73
2022/01/22 00:56:58;;;;;;;20.70;19.45;;;1.20;69.40;;;;;;5054847;28;20410;-72
2022/01/22 00:59:24;;;;;;;23.75;22.45;;;1.20;69.30;;;;;;5055509;28;20036;-74
2022/01/22 01:01:50;;;;;;;22.05;20.70;;;1.20;69.30;;;;;;5055399;28;20118;-73
2022/01/22 01:04:16;;;;;;;23.30;21.77;;;1.20;69.40;;;;;;5063625;28;20025;-72
2022/01/22 01:06:41;;;;;;;21.35;19.77;;;1.10;69.40;;;;;;5068065;28;20110;-74
2022/01/22 01:09:10;;;;;;;22.35;20.98;;;1.20;69.50;;;;;;5053375;28;20036;-74
2022/01/22 01:11:42;;;;;;;20.65;19.52;;;1.20;69.40;;;;;;5055643;28;20029;-74
2022/01/22 01:14:11;;;;;;;23.08;21.15;;;1.20;69.30;;;;;;5055643;28;20074;-74
2022/01/22 01:33:06;;;;;;;23.02;21.63;;;1.10;69.30;;;;;;5055493;28;20068;-73
2022/01/22 01:35:36;;;;;;;22.05;20.50;;;1.10;69.30;;;;;;5054174;28;20471;-74
2022/01/22 01:38:02;;;;;;;23.77;22.10;;;1.10;69.30;;;;;;5047391;28;20021;-74
2022/01/22 01:40:30;;;;;;;23.08;21.45;;;1.10;69.30;;;;;;5034841;28;20040;-73
2022/01/22 01:45:57;;;;;;;21.98;20.85;;;1.10;69.40;;;;;;5052767;28;20028;-74
2022/01/22 01:48:27;;;;;;;23.50;21.77;;;1.10;69.30;;;;;;5038490;28;20044;-74
2022/01/22 01:50:55;;;;;;;24.15;21.90;;;1.10;69.40;;;;;;5035378;28;20029;-71
2022/01/22 01:53:42;;;;;;;23.52;21.77;;;1.10;69.40;;;;;;5054699;28;20036;-73
2022/01/22 01:57:25;;;;;;;22.88;21.60;;;1.00;69.40;;;;;;5054439;28;20029;-72
2022/01/22 01:58:54;;;;;;;26.25;24.17;;;1.10;69.50;;;;;;5054967;28;20366;-73
2022/01/22 02:01:20;;;;;;;24.23;22.50;;;1.10;69.40;;;;;;5054360;28;20084;-74
2022/01/22 02:03:46;;;;;;;23.92;21.67;;;1.10;69.50;;;;;;5054715;28;20057;-74
2022/01/22 02:06:11;;;;;;;23.45;22.10;;;1.20;69.60;;;;;;5054502;28;20025;-74
2022/01/22 02:08:38;;;;;;;20.50;19.35;;;1.20;69.60;;;;;;5041825;28;20029;-74
2022/01/22 02:11:05;;;;;;;21.75;20.20;;;1.20;69.50;;;;;;5033688;28;20045;-76
2022/01/22 02:14:11;;;;;;;20.65;19.13;;;1.20;69.50;;;;;;5034631;28;20025;-76
2022/01/22 02:24:44;;;;;;;19.73;18.70;;;1.20;69.30;;;;;;5034675;28;19912;-74
2022/01/22 02:27:10;;;;;;;21.65;20.02;;;1.30;69.20;;;;;;5032946;28;20026;-73
2022/01/22 02:29:36;;;;;;;23.98;21.70;;;1.20;69.20;;;;;;5034518;28;20100;-74
2022/01/22 02:34:51;;;;;;;24.10;22.38;;;1.10;69.40;;;;;;5034239;28;20103;-74
2022/01/22 02:37:18;;;;;;;24.98;23.65;;;1.10;69.50;;;;;;5034204;28;20032;-71
2022/01/22 02:39:58;;;;;;;22.48;20.90;;;1.10;69.50;;;;;;5034140;28;20026;-74
2022/01/22 02:42:29;;;;;;;23.95;22.30;;;1.10;69.50;;;;;;5034043;28;20038;-75
2022/01/22 02:44:55;;;;;;;26.42;24.38;;;1.10;69.60;;;;;;5034035;28;20096;-75
2022/01/22 02:47:21;;;;;;;25.98;23.95;;;1.10;69.70;;;;;;5032683;28;20025;-73
2022/01/22 02:49:46;;;;;;;22.45;20.65;;;1.20;69.80;;;;;;5039537;28;20025;-74
2022/01/22 02:52:12;;;;;;;23.60;22.00;;;1.20;69.70;;;;;;5052803;28;20029;-74
2022/01/22 02:54:39;;;;;;;23.08;21.45;;;1.20;69.80;;;;;;5052338;28;20052;-74
2022/01/22 02:57:08;;;;;;;23.90;22.23;;;1.20;69.70;;;;;;5052355;28;20053;-74
2022/01/22 02:59:34;;;;;;;22.75;21.17;;;1.20;69.80;;;;;;5053761;28;20029;-74
2022/01/22 03:02:01;;;;;;;23.88;22.13;;;1.20;69.70;;;;;;5053632;28;20045;-73
2022/01/22 03:04:26;;;;;;;24.05;22.17;;;1.20;69.70;;;;;;5046855;28;20056;-73
2022/01/22 03:06:52;;;;;;;23.75;21.83;;;1.20;69.80;;;;;;5033848;28;20053;-74
2022/01/22 03:09:25;;;;;;;21.90;20.20;;;1.20;69.80;;;;;;5032337;28;20423;-75
2022/01/22 03:20:02;;;;;;;23.67;21.92;;;1.20;69.90;;;;;;5033578;28;20099;-75
2022/01/22 03:27:45;;;;;;;21.70;20.30;;;1.20;70.00;;;;;;5033523;28;20037;-74
2022/01/22 03:30:11;;;;;;;22.17;20.77;;;1.20;70.00;;;;;;5032560;28;20022;-74
2022/01/22 03:32:42;;;;;;;22.25;20.65;;;1.20;70.00;;;;;;5040170;28;20025;-74
2022/01/22 03:35:23;;;;;;;25.73;24.05;;;1.20;70.00;;;;;;5057846;28;20124;-72
2022/01/22 03:37:52;;;;;;;26.15;24.13;;;1.20;70.10;;;;;;5033420;28;20490;-74
2022/01/22 03:40:21;;;;;;;23.60;22.08;;;1.20;70.10;;;;;;5033723;28;20103;-74
2022/01/22 03:42:47;;;;;;;23.70;21.60;;;1.20;70.20;;;;;;5033413;28;20044;-74
2022/01/22 03:45:14;;;;;;;22.30;20.55;;;1.20;70.20;;;;;;5035695;28;20050;-73
2022/01/22 03:47:40;;;;;;;22.15;20.70;;;1.20;70.20;;;;;;5035961;28;20117;-74
2022/01/22 03:50:08;;;;;;;23.92;21.92;;;1.10;70.20;;;;;;5037557;28;20025;-74
2022/01/22 03:52:34;;;;;;;22.33;21.02;;;1.10;70.30;;;;;;5037072;28;20477;-75
2022/01/22 03:55:00;;;;;;;23.92;22.17;;;1.20;70.40;;;;;;5035781;28;20029;-74
2022/01/22 03:57:25;;;;;;;24.52;23.02;;;1.20;70.40;;;;;;5037306;28;20036;-73
2022/01/22 03:59:54;;;;;;;23.77;22.15;;;1.20;70.40;;;;;;5036997;28;20080;-75
2022/01/22 04:04:51;;;;;;;25.55;23.67;;;1.20;70.50;;;;;;5036894;28;20025;-72
2022/01/22 04:09:56;;;;;;;23.08;21.70;;;1.20;70.60;;;;;;5037421;28;20030;-76
2022/01/22 04:12:32;;;;;;;23.38;22.05;;;1.10;70.50;;;;;;5035483;28;20082;-75
2022/01/22 04:15:01;;;;;;;25.60;23.60;;;1.10;70.60;;;;;;5035606;28;20574;-76
2022/01/22 04:25:31;;;;;;;24.25;22.45;;;1.10;70.80;;;;;;5036776;28;20037;-74
2022/01/22 04:27:57;;;;;;;23.73;22.42;;;1.10;70.70;;;;;;5036648;28;20033;-73
2022/01/22 04:30:25;;;;;;;23.80;22.38;;;1.10;70.70;;;;;;5035160;28;20025;-73
2022/01/22 04:32:51;;;;;;;22.73;20.83;;;1.20;70.70;;;;;;5036284;28;20040;-73
2022/01/22 04:35:18;;;;;;;24.95;23.13;;;1.10;70.70;;;;;;5034983;28;20022;-73
2022/01/22 04:37:46;;;;;;;24.10;22.45;;;1.10;70.80;;;;;;5034975;28;20067;-73
2022/01/22 04:40:12;;;;;;;26.33;24.33;;;1.10;70.80;;;;;;5034984;28;20021;-76
2022/01/22 04:42:40;;;;;;;28.35;25.77;;;1.10;70.90;;;;;;5035375;28;20037;-74
2022/01/22 04:45:16;;;;;;;23.42;21.92;;;1.20;71.00;;;;;;5036127;28;20021;-76
2022/01/22 04:47:53;;;;;;;23.65;22.42;;;1.10;70.90;;;;;;5036091;28;20033;-73
2022/01/22 04:55:37;;;;;;;21.48;20.25;;;1.00;71.20;;;;;;5035440;28;20031;-76
2022/01/22 04:58:03;;;;;;;23.40;21.50;;;1.00;71.20;;;;;;5035196;28;20033;-74
2022/01/22 05:00:34;;;;;;;21.88;20.35;;;1.00;71.20;;;;;;5034361;28;20083;-73
2022/01/22 05:03:01;;;;;;;24.10;21.98;;;1.00;71.30;;;;;;5035292;28;20051;-78
2022/01/22 05:05:28;;;;;;;22.27;20.67;;;1.00;71.30;;;;;;5035406;28;20097;-76
2022/01/22 05:07:54;;;;;;;23.35;21.77;;;1.00;71.30;;;;;;5035422;28;20052;-77
2022/01/22 05:10:21;;;;;;;25.75;24.25;;;1.00;71.30;;;;;;5035942;28;20030;-76
2022/01/22 05:12:47;;;;;;;24.63;22.70;;;1.00;71.40;;;;;;5035591;28;20029;-71
2022/01/22 05:15:12;;;;;;;23.95;22.35;;;1.00;71.40;;;;;;5038339;28;20024;-73
2022/01/22 05:17:41;;;;;;;23.85;22.25;;;1.00;71.40;;;;;;5045789;28;20029;-73
2022/01/22 05:20:15;;;;;;;24.83;23.00;;;1.00;71.40;;;;;;5042279;28;20048;-73
2022/01/22 05:25:21;;;;;;;26.40;24.52;;;0.90;71.40;;;;;;5055167;28;20044;-75
2022/01/22 05:28:18;;;;;;;26.77;24.45;;;0.90;71.40;;;;;;5053681;28;20033;-71
2022/01/22 05:38:23;;;;;;;25.83;23.58;;;0.80;71.60;;;;;;5055160;28;20391;-67
2022/01/22 05:40:49;;;;;;;22.05;20.80;;;0.80;71.60;;;;;;5054718;28;20025;-66
2022/01/22 05:43:16;;;;;;;27.08;24.92;;;0.90;71.70;;;;;;5054640;28;20033;-67
2022/01/22 05:45:42;;;;;;;27.95;25.73;;;0.90;71.70;;;;;;5048290;28;20463;-71
2022/01/22 05:48:08;;;;;;;27.38;25.15;;;0.90;71.70;;;;;;5050095;28;20091;-70
2022/01/22 05:50:47;;;;;;;27.90;25.50;;;0.90;71.70;;;;;;5049792;28;20384;-72
2022/01/22 05:53:47;;;;;;;27.42;25.00;;;0.90;71.70;;;;;;5047954;28;20028;-69
2022/01/22 05:59:36;;;;;;;26.58;24.13;;;0.90;71.60;;;;;;5049462;28;20040;-72
2022/01/22 06:01:33;;;;;;;24.98;23.02;;;1.00;71.70;;;;;;5053965;28;20056;-73
2022/01/22 06:03:59;;;;;;;23.45;21.88;;;1.00;71.70;;;;;;5049922;28;20041;-76
2022/01/22 06:06:24;;;;;;;28.40;26.27;;;1.10;71.80;;;;;;5041029;28;20032;-79
2022/01/22 06:08:54;;;;;;;26.08;24.42;;;1.10;71.80;;;;;;5042396;28;20422;-82
2022/01/22 06:11:25;;;;;;;25.92;24.02;;;1.20;71.90;;;;;;5040855;28;20021;-82
2022/01/22 06:13:51;;;;;;;25.15;23.45;;;1.20;71.80;;;;;;5041650;28;20379;-70
2022/01/22 06:16:20;;;;;;;23.48;21.85;;;1.20;71.90;;;;;;5041354;28;20041;-68
2022/01/22 06:18:46;;;;;;;24.45;22.85;;;1.20;71.90;;;;;;5042858;28;20385;-69
2022/01/22 06:21:12;;;;;;;24.75;23.05;;;1.20;71.90;;;;;;5044753;28;20021;-69
2022/01/22 06:23:39;;;;;;;24.80;23.30;;;1.10;71.90;;;;;;5040960;28;20037;-69
2022/01/22 06:26:06;;;;;;;24.77;23.30;;;1.20;72.00;;;;;;5042242;28;20021;-67
2022/01/22 06:28:32;;;;;;;24.85;22.95;;;1.20;72.00;;;;;;5038672;28;20026;-68
2022/01/22 06:30:59;;;;;;;23.73;22.17;;;1.20;71.90;;;;;;5041273;28;20110;-69
2022/01/22 06:33:25;;;;;;;28.83;27.00;;;1.20;72.00;;;;;;5043160;28;20033;-70
2022/01/22 06:35:51;;;;;;;26.15;24.23;;;1.20;71.90;;;;;;5038784;28;20022;-70
2022/01/22 06:38:17;;;;;;;24.98;23.45;;;1.20;71.80;;;;;;5043105;28;20057;-72
2022/01/22 06:43:29;;;;;;;25.00;23.13;;;1.00;71.80;;;;;;5042677;28;20412;-70
2022/01/22 06:45:55;;;;;;;25.42;23.60;;;1.00;71.90;;;;;;5039974;28;20017;-71
2022/01/22 06:48:21;;;;;;;28.52;25.88;;;1.00;72.20;;;;;;5041505;28;20025;-70
2022/01/22 06:50:47;;;;;;;26.13;23.52;;;1.00;72.50;;;;;;5042579;28;20057;-70
2022/01/22 06:53:13;;;;;;;30.10;28.13;;;1.10;72.70;;;;;;5039718;28;20061;-68
2022/01/22 06:55:44;;;;;;;31.17;28.77;;;1.20;72.90;;;;;;5042882;28;20090;-68
2022/01/22 06:58:10;;;;;;;27.58;25.42;;;1.20;73.00;;;;;;5042997;28;20014;-69
2022/01/22 07:00:36;;;;;;;27.65;25.92;;;1.30;73.00;;;;;;5037180;28;20369;-70
2022/01/22 07:03:03;;;;;;;24.67;23.02;;;1.40;73.10;;;;;;5035845;28;20140;-70
2022/01/22 07:05:28;;;;;;;24.35;22.63;;;1.50;73.20;;;;;;5040203;28;20037;-69
2022/01/22 07:07:55;;;;;;;24.73;22.83;;;1.50;73.20;;;;;;5036719;28;20068;-70
2022/01/22 07:10:20;;;;;;;22.88;21.17;;;1.60;73.20;;;;;;5038686;28;20078;-69
2022/01/22 07:12:46;;;;;;;21.52;20.13;;;1.60;73.00;;;;;;5034293;28;20029;-68
2022/01/22 07:15:12;;;;;;;23.92;22.52;;;1.50;72.90;;;;;;5032087;28;20109;-68
2022/01/22 07:17:39;;;;;;;23.60;21.52;;;1.60;73.00;;;;;;5032925;28;20100;-68
2022/01/22 07:20:13;;;;;;;22.75;21.00;;;1.60;72.90;;;;;;5035252;28;20124;-68
2022/01/22 07:25:14;;;;;;;24.33;22.58;;;1.60;73.10;;;;;;5036739;28;20025;-68
2022/01/22 07:27:39;;;;;;;27.63;24.70;;;1.80;73.20;;;;;;5035713;28;20026;-69
2022/01/22 07:30:05;;;;;;;25.35;23.45;;;1.80;73.20;;;;;;5037344;28;20470;-69
2022/01/22 07:32:36;;;;;;;23.98;22.20;;;1.90;73.10;;;;;;5036241;28;20112;-69
2022/01/22 07:35:03;;;;;;;23.55;21.23;;;1.90;72.90;;;;;;5036142;28;20054;-69
2022/01/22 07:37:29;;;;;;;25.90;23.60;;;1.80;73.00;;;;;;5037082;28;20113;-68
2022/01/22 07:39:55;;;;;;;24.23;22.05;;;1.80;73.20;;;;;;5037703;28;20435;-69
2022/01/22 07:42:20;;;;;;;27.23;24.90;;;1.80;73.30;;;;;;5036909;28;20041;-69
2022/01/22 07:44:46;;;;;;;29.35;26.77;;;1.80;73.30;;;;;;5037168;28;20057;-69
2022/01/22 07:47:12;;;;;;;28.83;26.05;;;1.80;73.40;;;;;;5037128;28;20037;-69
2022/01/22 07:49:37;;;;;;;32.33;29.73;;;1.80;73.20;;;;;;5037202;28;20029;-70
2022/01/22 07:52:04;;;;;;;32.55;29.40;;;1.80;73.30;;;;;;5035728;28;20026;-70
2022/01/22 07:54:32;;;;;;;33.55;30.67;;;1.90;73.40;;;;;;5040615;28;20044;-64
2022/01/22 07:56:59;;;;;;;28.83;26.80;;;1.90;73.40;;;;;;5044490;28;20035;-62
2022/01/22 07:59:24;;;;;;;26.63;24.27;;;2.00;74.00;;;;;;5050194;28;20100;-63
2022/01/22 08:01:50;;;;;;;28.10;26.10;;;2.10;73.50;;;;;;5054511;28;20090;-63
2022/01/22 08:04:23;;;;;;;31.48;28.33;;;2.10;73.50;;;;;;5055108;28;20445;-63
2022/01/22 08:06:49;;;;;;;39.35;30.63;;;2.10;73.20;;;;;;5055502;28;20040;-62
2022/01/22 08:09:14;;;;;;;26.88;24.90;;;2.10;73.10;;;;;;5056690;28;20029;-63
2022/01/22 08:11:40;;;;;;;26.90;24.65;;;2.10;73.30;;;;;;5055291;28;20391;-62
2022/01/22 08:14:09;;;;;;;29.58;26.75;;;2.10;73.30;;;;;;5055422;28;20033;-62
2022/01/22 08:16:35;;;;;;;30.05;27.63;;;2.20;73.40;;;;;;5056305;28;20029;-62
2022/01/22 08:19:00;;;;;;;27.50;24.98;;;2.20;73.20;;;;;;5056145;28;20103;-61
2022/01/22 08:21:26;;;;;;;28.92;26.55;;;2.10;73.10;;;;;;5056081;28;20432;-62
2022/01/22 08:23:52;;;;;;;27.67;25.67;;;2.20;73.40;;;;;;5056082;28;20079;-62
2022/01/22 08:26:22;;;;;;;28.27;26.35;;;2.20;73.30;;;;;;5056099;28;20404;-62
2022/01/22 08:28:53;;;;;;;28.30;26.30;;;2.30;73.50;;;;;;5055019;28;20029;-62
2022/01/22 08:36:31;;;;;;;28.08;25.58;;;2.50;73.40;;;;;;5036495;28;20036;-62
2022/01/22 08:38:57;;;;;;;38.60;29.50;;;2.40;73.30;;;;;;5035949;28;20021;-63
2022/01/22 08:41:22;;;;;;;27.15;25.05;;;2.50;73.50;;;;;;5034690;28;20026;-62
2022/01/22 08:43:48;;;;;;;25.92;24.05;;;2.60;73.50;;;;;;5036070;28;20037;-62
2022/01/22 08:46:14;;;;;;;26.30;23.98;;;2.60;73.30;;;;;;5035688;28;20037;-61
2022/01/22 08:48:39;;;;;;;25.25;22.95;;;2.50;73.10;;;;;;5035851;28;20068;-63
2022/01/22 08:51:06;;;;;;;30.73;28.08;;;2.50;73.40;;;;;;5035994;28;20024;-61
2022/01/22 08:53:32;;;;;;;30.02;27.50;;;2.60;73.40;;;;;;5035771;28;20030;-61
2022/01/22 08:56:00;;;;;;;24.95;22.92;;;2.50;72.90;;;;;;5043648;28;20109;-61
2022/01/22 08:58:26;;;;;;;24.65;22.92;;;2.50;73.20;;;;;;5042259;28;20032;-60
2022/01/22 09:00:52;;;;;;;30.35;27.55;;;2.50;73.10;;;;;;5045311;28;20418;-60
2022/01/22 09:03:20;;;;;;;27.42;24.63;;;2.40;73.20;;;;;;5041880;28;20076;-61
2022/01/22 09:05:47;;;;;;;28.02;25.73;;;2.30;73.20;;;;;;5044954;28;20021;-60
2022/01/22 09:08:16;;;;;;;29.33;27.30;;;2.20;73.40;;;;;;5036883;28;20391;-60
2022/01/22 09:10:43;;;;;;;27.60;25.73;;;2.30;73.70;;;;;;5033871;28;20427;-59
2022/01/22 09:13:10;;;;;;;27.75;25.80;;;2.30;74.10;;;;;;5035180;28;20120;-61
2022/01/22 09:15:36;;;;;;;29.00;26.70;;;2.30;74.20;;;;;;5032800;28;20079;-60
2022/01/22 09:18:02;;;;;;;56.10;43.45;;;2.30;74.30;;;;;;5033674;28;20475;-61
2022/01/22 09:21:10;;;;;;;26.67;23.88;;;2.30;74.90;;;;;;5034931;28;20092;-61
2022/01/22 09:23:18;;;;;;;31.08;28.75;;;2.40;74.40;;;;;;5034416;28;20502;-62
2022/01/22 09:25:45;;;;;;;25.67;23.65;;;2.40;74.30;;;;;;5035027;28;20109;-62
2022/01/22 09:28:12;;;;;;;20.25;18.73;;;2.50;74.40;;;;;;5035245;28;20029;-61
2022/01/22 09:30:39;;;;;;;27.33;25.02;;;2.70;74.30;;;;;;5034978;28;20538;-59
2022/01/22 09:33:05;;;;;;;25.17;23.23;;;2.70;73.90;;;;;;5035040;28;20531;-61
2022/01/22 09:35:31;;;;;;;25.00;23.13;;;2.60;73.80;;;;;;5034889;28;20018;-61
2022/01/22 09:37:57;;;;;;;20.83;19.20;;;2.60;73.80;;;;;;5033638;28;20051;-61
2022/01/22 09:40:25;;;;;;;23.85;22.25;;;2.70;73.80;;;;;;5033377;28;20025;-61
2022/01/22 09:42:51;;;;;;;25.15;23.05;;;2.70;73.80;;;;;;5033756;28;20038;-61
2022/01/22 09:45:17;;;;;;;23.88;22.08;;;2.80;73.90;;;;;;5038328;28;20051;-61
2022/01/22 09:47:48;;;;;;;27.73;25.48;;;2.90;73.70;;;;;;5055051;28;20032;-62
2022/01/22 09:50:20;;;;;;;29.23;26.98;;;3.00;73.60;;;;;;5054776;28;20036;-62
2022/01/22 09:52:46;;;;;;;24.63;22.42;;;3.00;73.60;;;;;;5054533;28;20407;-61
2022/01/22 09:55:12;;;;;;;25.23;23.63;;;3.10;73.60;;;;;;5054050;28;20025;-61
2022/01/22 09:57:39;;;;;;;25.23;23.42;;;3.20;73.60;;;;;;5044110;28;20056;-61
2022/01/22 10:00:10;;;;;;;24.20;22.08;;;3.30;73.30;;;;;;5042569;28;20044;-60
2022/01/22 10:02:40;;;;;;;26.75;24.50;;;3.30;73.00;;;;;;5040145;28;20050;-61
2022/01/22 10:05:25;;;;;;;28.17;24.17;;;3.30;72.60;;;;;;5042976;28;20371;-61
2022/01/22 10:07:53;;;;;;;26.02;24.08;;;3.30;72.30;;;;;;5043808;28;20468;-60
2022/01/22 10:10:18;;;;;;;32.65;29.73;;;3.40;72.30;;;;;;5041778;28;20380;-60
2022/01/22 10:12:52;;;;;;;42.92;38.38;;;3.30;71.80;;;;;;5042900;28;20025;-61
2022/01/22 10:15:21;;;;;;;25.00;22.65;;;3.30;71.60;;;;;;5042493;28;20032;-61
2022/01/22 10:17:54;;;;;;;22.08;20.45;;;3.30;71.20;;;;;;5042600;28;20461;-60
2022/01/22 10:20:31;;;;;;;23.23;21.52;;;3.30;71.20;;;;;;5041932;28;20104;-60
2022/01/22 10:23:01;;;;;;;26.42;23.95;;;3.40;71.30;;;;;;5041285;28;20025;-61
2022/01/22 10:25:48;;;;;;;22.77;20.90;;;3.50;71.30;;;;;;5039834;28;20078;-62
2022/01/22 10:28:21;;;;;;;22.25;20.90;;;3.60;71.30;;;;;;5041362;28;20041;-60
2022/01/22 10:30:51;;;;;;;26.58;23.13;;;3.80;71.40;;;;;;5041129;28;20049;-61
2022/01/22 10:33:32;;;;;;;24.27;21.85;;;4.00;71.40;;;;;;5043498;28;20033;-61
2022/01/22 10:36:10;;;;;;;22.33;20.65;;;4.10;71.20;;;;;;5043255;28;20013;-61
2022/01/22 10:38:45;;;;;;;19.48;18.02;;;4.30;71.00;;;;;;5043059;28;20029;-60
2022/01/22 10:41:13;;;;;;;23.10;20.83;;;4.50;70.80;;;;;;5042280;28;20429;-61
2022/01/22 10:43:48;;;;;;;20.27;18.75;;;4.70;70.50;;;;;;5041591;28;20479;-61
2022/01/22 10:46:32;;;;;;;23.23;21.75;;;4.70;69.50;;;;;;5042895;28;20024;-61
2022/01/22 10:49:02;;;;;;;21.75;19.70;;;4.60;68.80;;;;;;5043006;28;20136;-59
2022/01/22 10:51:29;;;;;;;21.17;19.35;;;4.60;68.80;;;;;;5041910;28;20371;-59
2022/01/22 10:53:58;;;;;;;17.60;16.38;;;4.70;68.80;;;;;;5042297;28;20060;-60
2022/01/22 10:56:25;;;;;;;18.67;17.30;;;4.60;68.20;;;;;;5043809;28;20040;-60
2022/01/22 10:58:57;;;;;;;17.48;16.38;;;4.60;67.90;;;;;;5046162;28;20036;-59
2022/01/22 11:01:27;;;;;;;17.80;16.48;;;4.50;66.80;;;;;;5032079;28;20511;-60
2022/01/22 11:04:24;;;;;;;19.20;15.70;;;4.40;67.00;;;;;;5033445;28;20488;-60
2022/01/22 11:07:20;;;;;;;19.00;17.70;;;4.30;66.70;;;;;;5032051;28;20045;-60
2022/01/22 11:09:46;;;;;;;16.35;15.43;;;4.20;66.30;;;;;;5032012;28;20038;-61
2022/01/22 11:12:13;;;;;;;15.65;14.57;;;4.20;65.70;;;;;;5033231;28;20039;-61
2022/01/22 11:14:40;;;;;;;17.80;16.60;;;4.10;65.70;;;;;;5032244;28;20038;-63
2022/01/22 11:17:07;;;;;;;19.30;18.02;;;4.10;65.50;;;;;;5033572;28;20030;-63
2022/01/22 11:19:34;;;;;;;20.60;19.00;;;4.10;65.80;;;;;;5032257;28;20387;-64
2022/01/22 11:22:14;;;;;;;17.70;16.65;;;4.10;66.00;;;;;;5031923;28;20442;-63
2022/01/22 11:24:48;;;;;;;17.52;16.33;;;4.00;65.50;;;;;;5033471;28;20432;-63
2022/01/22 11:27:17;;;;;;;17.58;16.48;;;4.00;65.80;;;;;;5036557;28;20496;-62
2022/01/22 11:30:06;;;;;;;20.60;19.23;;;4.00;65.80;;;;;;5041071;28;20029;-63
2022/01/22 11:32:40;;;;;;;19.85;18.60;;;3.90;65.50;;;;;;5039732;28;20384;-63
2022/01/22 11:35:08;;;;;;;22.60;20.90;;;3.90;65.50;;;;;;5040583;28;20060;-62
2022/01/22 11:37:46;;;;;;;19.80;18.23;;;3.80;65.50;;;;;;5041172;28;20057;-62
2022/01/22 11:40:25;;;;;;;19.38;18.08;;;3.80;65.50;;;;;;5041647;28;20155;-64
2022/01/22 11:43:12;;;;;;;18.80;17.55;;;3.90;65.80;;;;;;5041028;28;20464;-64
2022/01/22 11:46:16;;;;;;;18.90;17.83;;;4.00;66.00;;;;;;5040573;28;20018;-64
2022/01/22 11:48:41;;;;;;;23.98;21.90;;;3.90;65.70;;;;;;5042124;28;20105;-64
2022/01/22 11:51:24;;;;;;;22.55;20.73;;;4.00;65.70;;;;;;5038987;28;20117;-63
2022/01/22 11:53:55;;;;;;;21.10;19.50;;;3.90;65.60;;;;;;5040184;28;20045;-64
2022/01/22 11:56:25;;;;;;;23.27;21.65;;;3.90;65.70;;;;;;5042789;28;20464;-64
2022/01/22 11:58:57;;;;;;;22.60;21.02;;;3.90;65.70;;;;;;5051572;28;20360;-63
2022/01/22 12:01:40;;;;;;;23.60;21.92;;;4.00;66.30;;;;;;5052350;28;20481;-63
2022/01/22 12:04:08;;;;;;;22.27;20.85;;;3.90;65.50;;;;;;5051358;28;20033;-64
2022/01/22 12:06:35;;;;;;;26.52;24.02;;;3.90;65.30;;;;;;5054324;28;20033;-65
2022/01/22 12:09:12;;;;;;;26.65;24.67;;;3.90;65.30;;;;;;5055356;28;20115;-64
2022/01/22 12:14:49;;;;;;;21.70;19.88;;;3.80;65.30;;;;;;5056686;28;20056;-63
2022/01/22 12:17:26;;;;;;;24.88;22.55;;;3.70;65.30;;;;;;5055314;28;20017;-64
2022/01/22 12:22:34;;;;;;;23.83;21.88;;;3.80;65.90;;;;;;5052907;28;20158;-64
2022/01/22 12:25:29;;;;;;;21.85;20.27;;;3.80;65.30;;;;;;5043632;28;20353;-65
2022/01/22 12:27:56;;;;;;;22.55;20.30;;;3.80;65.30;;;;;;5037408;28;20033;-65
2022/01/22 12:30:47;;;;;;;31.60;28.45;;;3.80;65.00;;;;;;5034816;28;20118;-64
2022/01/22 12:33:28;;;;;;;19.35;17.88;;;3.80;64.90;;;;;;5034861;28;20029;-64
2022/01/22 12:35:58;;;;;;;17.55;16.55;;;3.80;64.60;;;;;;5036309;28;20021;-64
2022/01/22 12:41:00;;;;;;;20.17;18.45;;;3.80;64.60;;;;;;5036285;28;20034;-65
2022/01/22 12:43:32;;;;;;;20.20;18.95;;;3.80;64.60;;;;;;5038323;28;20040;-63
2022/01/22 12:46:00;;;;;;;20.80;19.08;;;3.80;64.60;;;;;;5043333;28;20100;-63
2022/01/22 12:48:30;;;;;;;19.30;17.75;;;3.80;64.20;;;;;;5043582;28;20158;-64
2022/01/22 12:51:04;;;;;;;18.60;17.20;;;3.80;64.20;;;;;;5045370;28;20065;-62
2022/01/22 12:53:31;;;;;;;20.80;19.58;;;3.80;64.30;;;;;;5046783;28;20479;-62
2022/01/22 12:58:37;;;;;;;19.30;17.92;;;3.70;63.70;;;;;;5044665;28;20052;-63
2022/01/22 13:01:17;;;;;;;16.92;15.50;;;3.50;63.30;;;;;;5043926;28;20021;-63
2022/01/22 13:03:49;;;;;;;19.65;18.25;;;3.40;63.30;;;;;;5044828;28;20033;-63
2022/01/22 13:06:18;;;;;;;19.70;17.95;;;3.40;63.50;;;;;;5041228;28;20029;-64
2022/01/22 13:08:44;;;;;;;18.42;17.25;;;3.40;63.60;;;;;;5035386;28;20030;-64
2022/01/22 13:11:13;;;;;;;17.85;16.65;;;3.30;63.30;;;;;;5034468;28;20176;-65
2022/01/22 13:13:40;;;;;;;21.05;19.13;;;3.20;63.40;;;;;;5035516;28;20044;-62
2022/01/22 13:16:16;;;;;;;21.52;19.38;;;3.20;63.50;;;;;;5035370;28;20030;-63
2022/01/22 13:18:46;;;;;;;23.13;21.08;;;3.10;63.50;;;;;;5033408;28;20102;-63
2022/01/22 13:21:12;;;;;;;21.13;19.45;;;3.10;63.60;;;;;;5036143;28;20030;-64
2022/01/22 13:23:41;;;;;;;23.45;21.63;;;3.10;63.50;;;;;;5039022;28;20039;-64
2022/01/22 13:26:07;;;;;;;23.83;21.73;;;3.00;63.40;;;;;;5034602;28;20029;-63
2022/01/22 13:28:36;;;;;;;23.08;21.10;;;3.00;63.50;;;;;;5041334;28;20021;-64
2022/01/22 13:31:17;;;;;;;25.98;23.40;;;3.00;63.50;;;;;;5041848;28;20471;-63
2022/01/22 13:34:04;;;;;;;23.25;21.38;;;3.00;63.70;;;;;;5041126;28;20033;-63
2022/01/22 13:49:49;;;;;;;22.15;20.77;;;3.00;63.60;;;;;;5044536;28;20036;-62
2022/01/22 13:52:16;;;;;;;20.73;18.90;;;2.90;63.60;;;;;;5041731;28;20452;-63
2022/01/22 13:54:48;;;;;;;21.38;20.05;;;2.90;63.70;;;;;;5034676;28;20029;-62
2022/01/22 13:57:25;;;;;;;21.33;19.67;;;2.90;63.80;;;;;;5034812;28;20025;-63
2022/01/22 13:59:55;;;;;;;22.25;20.08;;;2.80;63.80;;;;;;5034808;28;20499;-62
2022/01/22 14:04:59;;;;;;;48.13;42.65;;;2.80;63.80;;;;;;5034270;28;20433;-61
2022/01/22 14:07:35;;;;;;;24.13;22.23;;;2.80;63.80;;;;;;5034354;28;20021;-61
2022/01/22 14:10:04;;;;;;;26.58;24.55;;;2.70;63.90;;;;;;5034483;28;20032;-62
2022/01/22 14:12:48;;;;;;;23.80;21.85;;;2.70;64.00;;;;;;5032846;28;20037;-63
2022/01/22 14:15:45;;;;;;;25.70;23.10;;;2.70;64.00;;;;;;5034188;28;20029;-61
2022/01/22 14:18:20;;;;;;;23.35;21.67;;;2.70;64.00;;;;;;5034433;28;20025;-63
2022/01/22 14:21:04;;;;;;;24.83;22.73;;;2.70;64.00;;;;;;5034153;28;20538;-62
2022/01/22 14:23:31;;;;;;;20.40;19.23;;;2.70;63.90;;;;;;5032706;28;20033;-61
2022/01/22 14:26:28;;;;;;;21.25;19.73;;;2.70;63.90;;;;;;5034264;28;20116;-63
2022/01/22 14:29:04;;;;;;;;;;;2.70;63.90;;;;;;5040845;28;20071;-64
2022/01/22 14:31:53;;;;;;;24.45;22.20;;;2.70;63.90;;;;;;5032421;28;19948;-63
2022/01/22 14:34:33;;;;;;;22.48;20.48;;;2.60;63.80;;;;;;5034028;28;20095;-63
2022/01/22 14:37:01;;;;;;;25.20;23.10;;;2.50;64.00;;;;;;5034012;28;20113;-64
2022/01/22 14:43:58;;;;;;;24.08;22.05;;;2.50;64.10;;;;;;5033725;28;20488;-62
2022/01/22 14:45:11;;;;;;;27.42;25.30;;;2.50;64.30;;;;;;5033806;28;20037;-61
2022/01/22 14:47:36;;;;;;;28.15;25.35;;;2.60;64.40;;;;;;5033894;28;20032;-61
2022/01/22 14:50:04;;;;;;;25.40;23.27;;;2.60;64.40;;;;;;5033601;28;20033;-62